sensor_id;sensor_type;location;lat;lon;timestamp;P1;durP1;ratioP1;P2;durP2;ratioP2
38972;SDS011;25333;50.762;4.470;2023-08-08T00:00:23;3.27;;;0.97;;
38972;SDS011;25333;50.762;4.470;2023-08-08T00:02:49;3.20;;;0.95;;
38972;SDS011;25333;50.762;4.470;2023-08-08T00:05:14;2.20;;;0.90;;
38972;SDS011;25333;50.762;4.470;2023-08-08T00:07:40;2.97;;;0.95;;
38972;SDS011;25333;50.762;4.470;2023-08-08T00:10:06;3.63;;;1.37;;
38972;SDS011;25333;50.762;4.470;2023-08-08T00:12:33;3.10;;;1.13;;
38972;SDS011;25333;50.762;4.470;2023-08-08T00:14:59;4.88;;;1.13;;
38972;SDS011;25333;50.762;4.470;2023-08-08T00:17:24;3.83;;;0.93;;
38972;SDS011;25333;50.762;4.470;2023-08-08T00:19:50;3.38;;;1.42;;
38972;SDS011;25333;50.762;4.470;2023-08-08T00:22:16;3.60;;;1.00;;
38972;SDS011;25333;50.762;4.470;2023-08-08T00:24:41;3.35;;;1.13;;
38972;SDS011;25333;50.762;4.470;2023-08-08T00:27:07;5.13;;;1.23;;
38972;SDS011;25333;50.762;4.470;2023-08-08T00:29:33;1.77;;;1.00;;
38972;SDS011;25333;50.762;4.470;2023-08-08T00:31:58;3.03;;;1.50;;
38972;SDS011;25333;50.762;4.470;2023-08-08T00:34:24;3.83;;;1.10;;
38972;SDS011;25333;50.762;4.470;2023-08-08T00:36:51;4.22;;;1.02;;
38972;SDS011;25333;50.762;4.470;2023-08-08T00:39:17;3.42;;;1.23;;
38972;SDS011;25333;50.762;4.470;2023-08-08T00:41:43;6.50;;;1.37;;
38972;SDS011;25333;50.762;4.470;2023-08-08T00:44:08;4.22;;;1.77;;
38972;SDS011;25333;50.762;4.470;2023-08-08T00:46:34;4.63;;;1.13;;
38972;SDS011;25333;50.762;4.470;2023-08-08T00:49:00;3.72;;;1.23;;
38972;SDS011;25333;50.762;4.470;2023-08-08T00:51:26;3.10;;;1.07;;
38972;SDS011;25333;50.762;4.470;2023-08-08T00:53:52;4.78;;;1.60;;
38972;SDS011;25333;50.762;4.470;2023-08-08T00:56:19;4.47;;;1.60;;
38972;SDS011;25333;50.762;4.470;2023-08-08T00:58:47;2.78;;;1.10;;
38972;SDS011;25333;50.762;4.470;2023-08-08T01:01:15;2.05;;;0.95;;
38972;SDS011;25333;50.762;4.470;2023-08-08T01:03:43;5.05;;;1.70;;
38972;SDS011;25333;50.762;4.470;2023-08-08T01:06:11;4.05;;;1.35;;
38972;SDS011;25333;50.762;4.470;2023-08-08T01:08:47;6.75;;;1.90;;
38972;SDS011;25333;50.762;4.470;2023-08-08T01:11:18;5.15;;;1.58;;
38972;SDS011;25333;50.762;4.470;2023-08-08T01:13:44;7.20;;;2.00;;
38972;SDS011;25333;50.762;4.470;2023-08-08T01:16:11;6.22;;;1.73;;
38972;SDS011;25333;50.762;4.470;2023-08-08T01:18:38;7.65;;;1.83;;
38972;SDS011;25333;50.762;4.470;2023-08-08T01:21:05;3.28;;;1.10;;
38972;SDS011;25333;50.762;4.470;2023-08-08T01:23:41;6.93;;;1.85;;
38972;SDS011;25333;50.762;4.470;2023-08-08T01:26:07;4.78;;;1.42;;
38972;SDS011;25333;50.762;4.470;2023-08-08T01:28:34;4.38;;;1.58;;
38972;SDS011;25333;50.762;4.470;2023-08-08T01:31:00;5.63;;;1.88;;
38972;SDS011;25333;50.762;4.470;2023-08-08T01:33:26;3.75;;;1.77;;
38972;SDS011;25333;50.762;4.470;2023-08-08T01:35:59;3.75;;;1.67;;
38972;SDS011;25333;50.762;4.470;2023-08-08T01:41:00;6.03;;;1.65;;
38972;SDS011;25333;50.762;4.470;2023-08-08T01:43:29;5.40;;;1.15;;
38972;SDS011;25333;50.762;4.470;2023-08-08T01:45:56;4.43;;;1.63;;
38972;SDS011;25333;50.762;4.470;2023-08-08T01:48:22;6.50;;;2.17;;
38972;SDS011;25333;50.762;4.470;2023-08-08T01:50:48;6.47;;;1.70;;
38972;SDS011;25333;50.762;4.470;2023-08-08T01:53:13;5.70;;;1.83;;
38972;SDS011;25333;50.762;4.470;2023-08-08T01:55:39;4.65;;;1.90;;
38972;SDS011;25333;50.762;4.470;2023-08-08T01:58:05;5.00;;;1.30;;
38972;SDS011;25333;50.762;4.470;2023-08-08T02:00:31;6.88;;;1.83;;
38972;SDS011;25333;50.762;4.470;2023-08-08T02:02:56;5.50;;;2.10;;
38972;SDS011;25333;50.762;4.470;2023-08-08T02:05:23;6.37;;;1.80;;
38972;SDS011;25333;50.762;4.470;2023-08-08T02:07:49;5.68;;;1.80;;
38972;SDS011;25333;50.762;4.470;2023-08-08T02:10:14;3.90;;;1.50;;
38972;SDS011;25333;50.762;4.470;2023-08-08T02:12:40;5.03;;;1.50;;
38972;SDS011;25333;50.762;4.470;2023-08-08T02:15:06;7.67;;;2.70;;
38972;SDS011;25333;50.762;4.470;2023-08-08T02:17:32;6.68;;;2.17;;
38972;SDS011;25333;50.762;4.470;2023-08-08T02:19:58;4.57;;;2.20;;
38972;SDS011;25333;50.762;4.470;2023-08-08T02:22:24;6.30;;;1.92;;
38972;SDS011;25333;50.762;4.470;2023-08-08T02:24:50;6.22;;;1.60;;
38972;SDS011;25333;50.762;4.470;2023-08-08T02:27:16;4.17;;;2.13;;
38972;SDS011;25333;50.762;4.470;2023-08-08T02:29:41;5.10;;;1.33;;
38972;SDS011;25333;50.762;4.470;2023-08-08T02:32:07;8.05;;;1.88;;
38972;SDS011;25333;50.762;4.470;2023-08-08T02:34:33;4.00;;;1.73;;
38972;SDS011;25333;50.762;4.470;2023-08-08T02:36:58;5.72;;;1.67;;
38972;SDS011;25333;50.762;4.470;2023-08-08T02:39:24;4.80;;;1.57;;
38972;SDS011;25333;50.762;4.470;2023-08-08T02:41:50;8.00;;;2.10;;
38972;SDS011;25333;50.762;4.470;2023-08-08T02:44:15;8.30;;;2.08;;
38972;SDS011;25333;50.762;4.470;2023-08-08T02:46:41;6.93;;;1.97;;
38972;SDS011;25333;50.762;4.470;2023-08-08T02:49:07;5.73;;;1.80;;
38972;SDS011;25333;50.762;4.470;2023-08-08T02:51:32;7.75;;;1.90;;
38972;SDS011;25333;50.762;4.470;2023-08-08T02:53:58;5.93;;;1.70;;
38972;SDS011;25333;50.762;4.470;2023-08-08T02:56:24;6.53;;;1.80;;
38972;SDS011;25333;50.762;4.470;2023-08-08T02:58:49;7.15;;;2.45;;
38972;SDS011;25333;50.762;4.470;2023-08-08T03:01:15;7.90;;;1.77;;
38972;SDS011;25333;50.762;4.470;2023-08-08T03:03:41;8.15;;;1.95;;
38972;SDS011;25333;50.762;4.470;2023-08-08T03:06:07;5.23;;;1.30;;
38972;SDS011;25333;50.762;4.470;2023-08-08T03:08:33;7.60;;;1.63;;
38972;SDS011;25333;50.762;4.470;2023-08-08T03:10:59;6.32;;;1.60;;
38972;SDS011;25333;50.762;4.470;2023-08-08T03:13:24;3.95;;;1.70;;
38972;SDS011;25333;50.762;4.470;2023-08-08T03:15:50;5.60;;;1.50;;
38972;SDS011;25333;50.762;4.470;2023-08-08T03:18:16;6.43;;;2.20;;
38972;SDS011;25333;50.762;4.470;2023-08-08T03:20:42;7.18;;;1.90;;
38972;SDS011;25333;50.762;4.470;2023-08-08T03:23:08;5.70;;;1.93;;
38972;SDS011;25333;50.762;4.470;2023-08-08T03:25:33;7.90;;;2.83;;
38972;SDS011;25333;50.762;4.470;2023-08-08T03:27:59;6.95;;;2.28;;
38972;SDS011;25333;50.762;4.470;2023-08-08T03:30:25;3.93;;;1.80;;
38972;SDS011;25333;50.762;4.470;2023-08-08T03:32:50;8.00;;;2.85;;
38972;SDS011;25333;50.762;4.470;2023-08-08T03:35:16;5.00;;;2.20;;
38972;SDS011;25333;50.762;4.470;2023-08-08T03:37:42;8.63;;;2.55;;
38972;SDS011;25333;50.762;4.470;2023-08-08T03:40:08;4.85;;;1.60;;
38972;SDS011;25333;50.762;4.470;2023-08-08T03:42:34;4.43;;;2.25;;
38972;SDS011;25333;50.762;4.470;2023-08-08T03:44:59;4.32;;;2.35;;
38972;SDS011;25333;50.762;4.470;2023-08-08T03:47:25;7.38;;;2.78;;
38972;SDS011;25333;50.762;4.470;2023-08-08T03:49:51;10.10;;;2.75;;
38972;SDS011;25333;50.762;4.470;2023-08-08T03:52:20;5.80;;;3.15;;
38972;SDS011;25333;50.762;4.470;2023-08-08T03:54:46;9.63;;;2.88;;
38972;SDS011;25333;50.762;4.470;2023-08-08T03:57:12;6.57;;;2.20;;
38972;SDS011;25333;50.762;4.470;2023-08-08T03:59:38;5.85;;;1.92;;
38972;SDS011;25333;50.762;4.470;2023-08-08T04:02:04;6.67;;;2.80;;
38972;SDS011;25333;50.762;4.470;2023-08-08T04:04:29;7.18;;;2.72;;
38972;SDS011;25333;50.762;4.470;2023-08-08T04:06:55;8.30;;;3.17;;
38972;SDS011;25333;50.762;4.470;2023-08-08T04:09:21;6.97;;;2.07;;
38972;SDS011;25333;50.762;4.470;2023-08-08T04:11:48;14.48;;;2.22;;
38972;SDS011;25333;50.762;4.470;2023-08-08T04:14:14;9.20;;;2.75;;
38972;SDS011;25333;50.762;4.470;2023-08-08T04:16:39;8.75;;;2.72;;
38972;SDS011;25333;50.762;4.470;2023-08-08T04:19:05;11.17;;;1.83;;
38972;SDS011;25333;50.762;4.470;2023-08-08T04:21:31;9.98;;;2.40;;
38972;SDS011;25333;50.762;4.470;2023-08-08T04:23:59;5.95;;;2.03;;
38972;SDS011;25333;50.762;4.470;2023-08-08T04:26:25;9.00;;;2.42;;
38972;SDS011;25333;50.762;4.470;2023-08-08T04:28:51;5.07;;;2.47;;
38972;SDS011;25333;50.762;4.470;2023-08-08T04:31:17;7.68;;;3.00;;
38972;SDS011;25333;50.762;4.470;2023-08-08T04:33:43;5.68;;;2.38;;
38972;SDS011;25333;50.762;4.470;2023-08-08T04:36:09;7.05;;;1.83;;
38972;SDS011;25333;50.762;4.470;2023-08-08T04:38:34;8.83;;;2.50;;
38972;SDS011;25333;50.762;4.470;2023-08-08T04:41:00;7.85;;;1.73;;
38972;SDS011;25333;50.762;4.470;2023-08-08T04:43:26;6.55;;;2.45;;
38972;SDS011;25333;50.762;4.470;2023-08-08T04:45:53;6.85;;;2.65;;
38972;SDS011;25333;50.762;4.470;2023-08-08T04:48:19;6.77;;;2.53;;
38972;SDS011;25333;50.762;4.470;2023-08-08T04:50:47;10.60;;;2.30;;
38972;SDS011;25333;50.762;4.470;2023-08-08T04:53:13;9.00;;;2.95;;
38972;SDS011;25333;50.762;4.470;2023-08-08T04:55:39;6.38;;;1.70;;
38972;SDS011;25333;50.762;4.470;2023-08-08T04:58:05;5.10;;;1.77;;
38972;SDS011;25333;50.762;4.470;2023-08-08T05:00:31;5.18;;;1.85;;
38972;SDS011;25333;50.762;4.470;2023-08-08T05:02:57;10.52;;;2.42;;
38972;SDS011;25333;50.762;4.470;2023-08-08T05:05:22;10.95;;;2.67;;
38972;SDS011;25333;50.762;4.470;2023-08-08T05:07:48;6.07;;;2.57;;
38972;SDS011;25333;50.762;4.470;2023-08-08T05:10:14;9.38;;;2.50;;
38972;SDS011;25333;50.762;4.470;2023-08-08T05:12:39;6.95;;;2.85;;
38972;SDS011;25333;50.762;4.470;2023-08-08T05:15:05;5.38;;;2.30;;
38972;SDS011;25333;50.762;4.470;2023-08-08T05:17:31;8.40;;;2.53;;
38972;SDS011;25333;50.762;4.470;2023-08-08T05:19:57;4.25;;;1.80;;
38972;SDS011;25333;50.762;4.470;2023-08-08T05:22:23;7.03;;;2.70;;
38972;SDS011;25333;50.762;4.470;2023-08-08T05:24:48;9.45;;;2.75;;
38972;SDS011;25333;50.762;4.470;2023-08-08T05:27:14;8.20;;;2.97;;
38972;SDS011;25333;50.762;4.470;2023-08-08T05:29:40;12.30;;;3.47;;
38972;SDS011;25333;50.762;4.470;2023-08-08T05:32:06;7.00;;;2.97;;
38972;SDS011;25333;50.762;4.470;2023-08-08T05:34:33;7.80;;;2.83;;
38972;SDS011;25333;50.762;4.470;2023-08-08T05:36:59;7.60;;;3.20;;
38972;SDS011;25333;50.762;4.470;2023-08-08T05:39:25;11.67;;;3.10;;
38972;SDS011;25333;50.762;4.470;2023-08-08T05:41:51;8.93;;;3.25;;
38972;SDS011;25333;50.762;4.470;2023-08-08T05:44:17;7.93;;;2.92;;
38972;SDS011;25333;50.762;4.470;2023-08-08T05:46:43;6.20;;;2.20;;
38972;SDS011;25333;50.762;4.470;2023-08-08T05:49:08;6.07;;;2.97;;
38972;SDS011;25333;50.762;4.470;2023-08-08T05:51:34;7.70;;;2.75;;
38972;SDS011;25333;50.762;4.470;2023-08-08T05:54:00;6.77;;;2.67;;
38972;SDS011;25333;50.762;4.470;2023-08-08T05:56:27;5.82;;;2.20;;
38972;SDS011;25333;50.762;4.470;2023-08-08T05:58:59;9.67;;;2.67;;
38972;SDS011;25333;50.762;4.470;2023-08-08T06:01:25;7.32;;;2.28;;
38972;SDS011;25333;50.762;4.470;2023-08-08T06:03:51;8.33;;;2.57;;
38972;SDS011;25333;50.762;4.470;2023-08-08T06:06:18;5.57;;;2.30;;
38972;SDS011;25333;50.762;4.470;2023-08-08T06:08:43;6.10;;;2.15;;
38972;SDS011;25333;50.762;4.470;2023-08-08T06:11:10;7.45;;;2.17;;
38972;SDS011;25333;50.762;4.470;2023-08-08T06:13:36;8.48;;;2.35;;
38972;SDS011;25333;50.762;4.470;2023-08-08T06:16:02;9.55;;;2.30;;
38972;SDS011;25333;50.762;4.470;2023-08-08T06:18:34;10.15;;;3.20;;
38972;SDS011;25333;50.762;4.470;2023-08-08T06:21:00;8.43;;;2.47;;
38972;SDS011;25333;50.762;4.470;2023-08-08T06:23:27;7.25;;;2.05;;
38972;SDS011;25333;50.762;4.470;2023-08-08T06:25:53;5.30;;;2.08;;
38972;SDS011;25333;50.762;4.470;2023-08-08T06:28:18;7.43;;;1.63;;
38972;SDS011;25333;50.762;4.470;2023-08-08T06:30:44;8.43;;;2.47;;
38972;SDS011;25333;50.762;4.470;2023-08-08T06:33:10;5.40;;;1.95;;
38972;SDS011;25333;50.762;4.470;2023-08-08T06:35:36;4.30;;;1.80;;
38972;SDS011;25333;50.762;4.470;2023-08-08T06:38:04;7.18;;;1.88;;
38972;SDS011;25333;50.762;4.470;2023-08-08T06:40:31;6.03;;;1.83;;
38972;SDS011;25333;50.762;4.470;2023-08-08T06:43:02;8.17;;;1.77;;
38972;SDS011;25333;50.762;4.470;2023-08-08T06:45:38;5.40;;;1.20;;
38972;SDS011;25333;50.762;4.470;2023-08-08T06:48:06;6.25;;;1.60;;
38972;SDS011;25333;50.762;4.470;2023-08-08T06:50:32;6.77;;;1.93;;
38972;SDS011;25333;50.762;4.470;2023-08-08T06:52:57;8.43;;;1.70;;
38972;SDS011;25333;50.762;4.470;2023-08-08T06:55:23;12.85;;;2.08;;
38972;SDS011;25333;50.762;4.470;2023-08-08T06:57:49;5.07;;;1.73;;
38972;SDS011;25333;50.762;4.470;2023-08-08T07:00:15;4.63;;;1.45;;
38972;SDS011;25333;50.762;4.470;2023-08-08T07:02:41;9.30;;;2.25;;
38972;SDS011;25333;50.762;4.470;2023-08-08T07:05:08;5.47;;;1.67;;
38972;SDS011;25333;50.762;4.470;2023-08-08T07:07:35;7.27;;;1.70;;
38972;SDS011;25333;50.762;4.470;2023-08-08T07:10:00;6.85;;;1.95;;
38972;SDS011;25333;50.762;4.470;2023-08-08T07:12:26;4.88;;;1.83;;
38972;SDS011;25333;50.762;4.470;2023-08-08T07:14:52;6.38;;;1.70;;
38972;SDS011;25333;50.762;4.470;2023-08-08T07:17:18;4.87;;;1.60;;
38972;SDS011;25333;50.762;4.470;2023-08-08T07:19:44;7.55;;;1.92;;
38972;SDS011;25333;50.762;4.470;2023-08-08T07:22:10;7.18;;;2.33;;
38972;SDS011;25333;50.762;4.470;2023-08-08T07:24:36;5.63;;;1.70;;
38972;SDS011;25333;50.762;4.470;2023-08-08T07:27:04;5.80;;;1.30;;
38972;SDS011;25333;50.762;4.470;2023-08-08T07:29:30;12.25;;;2.65;;
38972;SDS011;25333;50.762;4.470;2023-08-08T07:31:57;7.97;;;2.00;;
38972;SDS011;25333;50.762;4.470;2023-08-08T07:34:23;4.40;;;1.70;;
38972;SDS011;25333;50.762;4.470;2023-08-08T07:36:50;9.02;;;2.08;;
38972;SDS011;25333;50.762;4.470;2023-08-08T07:39:16;4.68;;;1.60;;
38972;SDS011;25333;50.762;4.470;2023-08-08T07:41:42;5.18;;;1.90;;
38972;SDS011;25333;50.762;4.470;2023-08-08T07:44:07;5.23;;;1.43;;
38972;SDS011;25333;50.762;4.470;2023-08-08T07:46:33;3.55;;;1.33;;
38972;SDS011;25333;50.762;4.470;2023-08-08T07:48:59;5.78;;;1.60;;
38972;SDS011;25333;50.762;4.470;2023-08-08T07:51:28;5.10;;;1.95;;
38972;SDS011;25333;50.762;4.470;2023-08-08T07:53:54;5.33;;;1.93;;
38972;SDS011;25333;50.762;4.470;2023-08-08T07:56:19;2.85;;;1.20;;
38972;SDS011;25333;50.762;4.470;2023-08-08T07:58:45;3.10;;;1.60;;
38972;SDS011;25333;50.762;4.470;2023-08-08T08:01:11;3.13;;;1.43;;
38972;SDS011;25333;50.762;4.470;2023-08-08T08:03:38;10.50;;;2.53;;
38972;SDS011;25333;50.762;4.470;2023-08-08T08:06:04;6.28;;;1.92;;
38972;SDS011;25333;50.762;4.470;2023-08-08T08:08:30;5.60;;;1.87;;
38972;SDS011;25333;50.762;4.470;2023-08-08T08:10:57;3.95;;;1.65;;
38972;SDS011;25333;50.762;4.470;2023-08-08T08:13:32;5.50;;;2.50;;
38972;SDS011;25333;50.762;4.470;2023-08-08T08:15:57;8.77;;;2.10;;
38972;SDS011;25333;50.762;4.470;2023-08-08T08:18:23;5.47;;;2.13;;
38972;SDS011;25333;50.762;4.470;2023-08-08T08:20:49;3.37;;;1.33;;
38972;SDS011;25333;50.762;4.470;2023-08-08T08:23:15;4.97;;;1.30;;
38972;SDS011;25333;50.762;4.470;2023-08-08T08:25:41;4.68;;;1.60;;
38972;SDS011;25333;50.762;4.470;2023-08-08T08:28:07;12.57;;;2.22;;
38972;SDS011;25333;50.762;4.470;2023-08-08T08:30:33;5.75;;;1.75;;
38972;SDS011;25333;50.762;4.470;2023-08-08T08:32:58;5.03;;;1.65;;
38972;SDS011;25333;50.762;4.470;2023-08-08T08:35:25;6.53;;;1.92;;
38972;SDS011;25333;50.762;4.470;2023-08-08T08:37:51;6.05;;;1.50;;
38972;SDS011;25333;50.762;4.470;2023-08-08T08:40:21;6.60;;;1.40;;
38972;SDS011;25333;50.762;4.470;2023-08-08T08:42:48;5.50;;;1.53;;
38972;SDS011;25333;50.762;4.470;2023-08-08T08:45:14;3.63;;;1.50;;
38972;SDS011;25333;50.762;4.470;2023-08-08T08:48:00;4.35;;;1.20;;
38972;SDS011;25333;50.762;4.470;2023-08-08T08:50:27;2.53;;;1.00;;
38972;SDS011;25333;50.762;4.470;2023-08-08T08:52:55;3.58;;;1.00;;
38972;SDS011;25333;50.762;4.470;2023-08-08T08:55:22;3.70;;;1.38;;
38972;SDS011;25333;50.762;4.470;2023-08-08T08:57:51;7.93;;;1.30;;
38972;SDS011;25333;50.762;4.470;2023-08-08T09:00:18;2.95;;;1.35;;
38972;SDS011;25333;50.762;4.470;2023-08-08T09:02:44;4.88;;;1.42;;
38972;SDS011;25333;50.762;4.470;2023-08-08T09:05:10;5.47;;;1.27;;
38972;SDS011;25333;50.762;4.470;2023-08-08T09:07:38;4.60;;;1.38;;
38972;SDS011;25333;50.762;4.470;2023-08-08T09:10:04;4.60;;;1.48;;
38972;SDS011;25333;50.762;4.470;2023-08-08T09:12:30;5.45;;;1.95;;
38972;SDS011;25333;50.762;4.470;2023-08-08T09:14:56;8.07;;;1.88;;
38972;SDS011;25333;50.762;4.470;2023-08-08T09:17:26;6.82;;;2.00;;
38972;SDS011;25333;50.762;4.470;2023-08-08T09:19:53;8.35;;;1.67;;
38972;SDS011;25333;50.762;4.470;2023-08-08T09:22:23;4.57;;;1.50;;
38972;SDS011;25333;50.762;4.470;2023-08-08T09:24:49;8.57;;;1.55;;
38972;SDS011;25333;50.762;4.470;2023-08-08T09:27:15;4.70;;;1.65;;
38972;SDS011;25333;50.762;4.470;2023-08-08T09:29:41;3.75;;;1.38;;
38972;SDS011;25333;50.762;4.470;2023-08-08T09:32:07;5.13;;;1.85;;
38972;SDS011;25333;50.762;4.470;2023-08-08T09:34:34;5.15;;;1.80;;
38972;SDS011;25333;50.762;4.470;2023-08-08T09:37:00;3.63;;;2.00;;
38972;SDS011;25333;50.762;4.470;2023-08-08T09:39:26;3.60;;;1.50;;
38972;SDS011;25333;50.762;4.470;2023-08-08T09:41:53;5.38;;;1.38;;
38972;SDS011;25333;50.762;4.470;2023-08-08T09:44:24;4.80;;;1.42;;
38972;SDS011;25333;50.762;4.470;2023-08-08T09:46:54;4.28;;;1.30;;
38972;SDS011;25333;50.762;4.470;2023-08-08T09:49:21;6.38;;;1.52;;
38972;SDS011;25333;50.762;4.470;2023-08-08T09:51:47;4.40;;;1.60;;
38972;SDS011;25333;50.762;4.470;2023-08-08T09:54:14;4.15;;;1.42;;
38972;SDS011;25333;50.762;4.470;2023-08-08T09:56:40;5.38;;;1.88;;
38972;SDS011;25333;50.762;4.470;2023-08-08T09:59:07;8.60;;;2.00;;
38972;SDS011;25333;50.762;4.470;2023-08-08T10:01:33;4.25;;;1.70;;
38972;SDS011;25333;50.762;4.470;2023-08-08T10:03:59;6.50;;;1.52;;
38972;SDS011;25333;50.762;4.470;2023-08-08T10:06:28;5.88;;;1.50;;
38972;SDS011;25333;50.762;4.470;2023-08-08T10:08:54;4.47;;;1.20;;
38972;SDS011;25333;50.762;4.470;2023-08-08T10:11:20;4.83;;;1.20;;
38972;SDS011;25333;50.762;4.470;2023-08-08T10:13:49;5.45;;;1.77;;
38972;SDS011;25333;50.762;4.470;2023-08-08T10:16:16;4.60;;;1.25;;
38972;SDS011;25333;50.762;4.470;2023-08-08T10:18:43;5.93;;;1.20;;
38972;SDS011;25333;50.762;4.470;2023-08-08T10:21:11;4.40;;;0.87;;
38972;SDS011;25333;50.762;4.470;2023-08-08T10:23:39;6.15;;;1.58;;
38972;SDS011;25333;50.762;4.470;2023-08-08T10:26:06;4.72;;;1.00;;
38972;SDS011;25333;50.762;4.470;2023-08-08T10:28:54;2.95;;;1.13;;
38972;SDS011;25333;50.762;4.470;2023-08-08T10:31:21;2.20;;;0.77;;
38972;SDS011;25333;50.762;4.470;2023-08-08T10:33:48;3.47;;;1.02;;
38972;SDS011;25333;50.762;4.470;2023-08-08T10:36:14;2.97;;;1.10;;
38972;SDS011;25333;50.762;4.470;2023-08-08T10:38:47;8.30;;;1.20;;
38972;SDS011;25333;50.762;4.470;2023-08-08T10:41:20;2.53;;;0.75;;
38972;SDS011;25333;50.762;4.470;2023-08-08T10:44:08;3.97;;;0.82;;
38972;SDS011;25333;50.762;4.470;2023-08-08T10:46:34;3.60;;;0.73;;
38972;SDS011;25333;50.762;4.470;2023-08-08T10:49:00;3.17;;;0.80;;
38972;SDS011;25333;50.762;4.470;2023-08-08T10:51:37;3.72;;;0.95;;
38972;SDS011;25333;50.762;4.470;2023-08-08T10:54:09;4.87;;;0.80;;
38972;SDS011;25333;50.762;4.470;2023-08-08T10:56:48;4.47;;;1.00;;
38972;SDS011;25333;50.762;4.470;2023-08-08T10:59:26;4.10;;;0.85;;
38972;SDS011;25333;50.762;4.470;2023-08-08T11:02:01;4.63;;;0.82;;
38972;SDS011;25333;50.762;4.470;2023-08-08T11:04:28;2.00;;;0.90;;
38972;SDS011;25333;50.762;4.470;2023-08-08T11:06:55;4.03;;;1.15;;
38972;SDS011;25333;50.762;4.470;2023-08-08T11:09:21;3.63;;;1.30;;
38972;SDS011;25333;50.762;4.470;2023-08-08T11:11:47;1.50;;;0.60;;
38972;SDS011;25333;50.762;4.470;2023-08-08T11:14:14;1.70;;;0.60;;
38972;SDS011;25333;50.762;4.470;2023-08-08T11:16:41;4.03;;;0.53;;
38972;SDS011;25333;50.762;4.470;2023-08-08T11:19:09;1.80;;;0.40;;
38972;SDS011;25333;50.762;4.470;2023-08-08T11:21:44;2.17;;;0.20;;
38972;SDS011;25333;50.762;4.470;2023-08-08T11:24:11;1.90;;;0.88;;
38972;SDS011;25333;50.762;4.470;2023-08-08T11:26:39;2.10;;;0.50;;
38972;SDS011;25333;50.762;4.470;2023-08-08T11:29:06;2.08;;;0.50;;
38972;SDS011;25333;50.762;4.470;2023-08-08T11:31:33;1.83;;;0.65;;
38972;SDS011;25333;50.762;4.470;2023-08-08T11:34:00;2.80;;;0.55;;
38972;SDS011;25333;50.762;4.470;2023-08-08T11:36:26;3.10;;;0.55;;
38972;SDS011;25333;50.762;4.470;2023-08-08T11:38:54;2.33;;;0.57;;
38972;SDS011;25333;50.762;4.470;2023-08-08T11:41:22;2.00;;;0.50;;
38972;SDS011;25333;50.762;4.470;2023-08-08T11:43:49;1.95;;;0.52;;
38972;SDS011;25333;50.762;4.470;2023-08-08T11:46:16;1.57;;;0.60;;
38972;SDS011;25333;50.762;4.470;2023-08-08T11:48:42;2.17;;;0.60;;
38972;SDS011;25333;50.762;4.470;2023-08-08T11:51:11;1.98;;;0.70;;
38972;SDS011;25333;50.762;4.470;2023-08-08T11:53:52;2.67;;;0.40;;
38972;SDS011;25333;50.762;4.470;2023-08-08T11:56:18;3.28;;;0.50;;
38972;SDS011;25333;50.762;4.470;2023-08-08T11:58:47;2.42;;;0.70;;
38972;SDS011;25333;50.762;4.470;2023-08-08T12:01:14;1.52;;;0.52;;
38972;SDS011;25333;50.762;4.470;2023-08-08T12:03:40;2.30;;;0.50;;
38972;SDS011;25333;50.762;4.470;2023-08-08T12:06:12;2.13;;;0.60;;
38972;SDS011;25333;50.762;4.470;2023-08-08T12:08:42;1.95;;;0.40;;
38972;SDS011;25333;50.762;4.470;2023-08-08T12:11:09;2.60;;;0.50;;
38972;SDS011;25333;50.762;4.470;2023-08-08T12:13:39;1.80;;;0.50;;
38972;SDS011;25333;50.762;4.470;2023-08-08T12:16:09;1.13;;;0.53;;
38972;SDS011;25333;50.762;4.470;2023-08-08T12:18:37;2.80;;;0.40;;
38972;SDS011;25333;50.762;4.470;2023-08-08T12:21:04;4.68;;;0.52;;
38972;SDS011;25333;50.762;4.470;2023-08-08T12:23:30;1.00;;;0.47;;
38972;SDS011;25333;50.762;4.470;2023-08-08T12:25:57;1.10;;;0.40;;
38972;SDS011;25333;50.762;4.470;2023-08-08T12:28:24;2.45;;;0.50;;
38972;SDS011;25333;50.762;4.470;2023-08-08T12:30:50;1.90;;;0.70;;
38972;SDS011;25333;50.762;4.470;2023-08-08T12:33:16;2.60;;;0.60;;
38972;SDS011;25333;50.762;4.470;2023-08-08T12:35:42;3.10;;;0.60;;
38972;SDS011;25333;50.762;4.470;2023-08-08T12:38:07;1.77;;;0.30;;
38972;SDS011;25333;50.762;4.470;2023-08-08T12:40:33;2.67;;;0.67;;
38972;SDS011;25333;50.762;4.470;2023-08-08T12:42:59;1.93;;;0.67;;
38972;SDS011;25333;50.762;4.470;2023-08-08T12:45:24;2.03;;;0.30;;
38972;SDS011;25333;50.762;4.470;2023-08-08T12:47:50;1.77;;;0.30;;
38972;SDS011;25333;50.762;4.470;2023-08-08T12:50:16;4.33;;;0.63;;
38972;SDS011;25333;50.762;4.470;2023-08-08T12:52:42;1.83;;;0.40;;
38972;SDS011;25333;50.762;4.470;2023-08-08T12:55:08;2.10;;;0.75;;
38972;SDS011;25333;50.762;4.470;2023-08-08T12:57:36;2.17;;;0.60;;
38972;SDS011;25333;50.762;4.470;2023-08-08T13:00:02;2.03;;;0.30;;
38972;SDS011;25333;50.762;4.470;2023-08-08T13:02:29;1.15;;;0.38;;
38972;SDS011;25333;50.762;4.470;2023-08-08T13:04:54;1.97;;;0.47;;
38972;SDS011;25333;50.762;4.470;2023-08-08T13:07:20;1.23;;;0.32;;
38972;SDS011;25333;50.762;4.470;2023-08-08T13:09:46;3.13;;;0.55;;
38972;SDS011;25333;50.762;4.470;2023-08-08T13:12:12;4.43;;;0.65;;
38972;SDS011;25333;50.762;4.470;2023-08-08T13:14:37;2.83;;;0.77;;
38972;SDS011;25333;50.762;4.470;2023-08-08T13:17:03;2.80;;;0.60;;
38972;SDS011;25333;50.762;4.470;2023-08-08T13:19:29;3.17;;;0.63;;
38972;SDS011;25333;50.762;4.470;2023-08-08T13:21:55;1.70;;;0.50;;
38972;SDS011;25333;50.762;4.470;2023-08-08T13:24:21;1.13;;;0.30;;
38972;SDS011;25333;50.762;4.470;2023-08-08T13:26:48;3.22;;;0.73;;
38972;SDS011;25333;50.762;4.470;2023-08-08T13:29:15;2.92;;;0.55;;
38972;SDS011;25333;50.762;4.470;2023-08-08T13:31:40;1.77;;;0.40;;
38972;SDS011;25333;50.762;4.470;2023-08-08T13:34:06;1.48;;;0.20;;
38972;SDS011;25333;50.762;4.470;2023-08-08T13:36:32;1.60;;;0.40;;
38972;SDS011;25333;50.762;4.470;2023-08-08T13:38:58;1.05;;;0.30;;
38972;SDS011;25333;50.762;4.470;2023-08-08T13:41:23;2.38;;;0.35;;
38972;SDS011;25333;50.762;4.470;2023-08-08T13:43:49;1.40;;;0.47;;
38972;SDS011;25333;50.762;4.470;2023-08-08T13:46:15;4.00;;;0.50;;
38972;SDS011;25333;50.762;4.470;2023-08-08T13:48:41;1.35;;;0.40;;
38972;SDS011;25333;50.762;4.470;2023-08-08T13:51:07;1.25;;;0.50;;
38972;SDS011;25333;50.762;4.470;2023-08-08T13:53:33;2.33;;;0.50;;
38972;SDS011;25333;50.762;4.470;2023-08-08T13:55:59;1.20;;;0.50;;
38972;SDS011;25333;50.762;4.470;2023-08-08T13:58:25;1.20;;;0.50;;
38972;SDS011;25333;50.762;4.470;2023-08-08T14:00:51;0.80;;;0.20;;
38972;SDS011;25333;50.762;4.470;2023-08-08T14:03:17;1.27;;;0.40;;
38972;SDS011;25333;50.762;4.470;2023-08-08T14:05:43;3.27;;;0.67;;
38972;SDS011;25333;50.762;4.470;2023-08-08T14:08:09;1.38;;;0.40;;
38972;SDS011;25333;50.762;4.470;2023-08-08T14:10:35;2.40;;;0.20;;
38972;SDS011;25333;50.762;4.470;2023-08-08T14:13:01;1.40;;;0.40;;
38972;SDS011;25333;50.762;4.470;2023-08-08T14:15:27;1.23;;;0.40;;
38972;SDS011;25333;50.762;4.470;2023-08-08T14:17:53;1.50;;;0.30;;
38972;SDS011;25333;50.762;4.470;2023-08-08T14:20:20;1.17;;;0.40;;
38972;SDS011;25333;50.762;4.470;2023-08-08T14:22:46;2.30;;;0.40;;
38972;SDS011;25333;50.762;4.470;2023-08-08T14:25:12;1.58;;;0.25;;
38972;SDS011;25333;50.762;4.470;2023-08-08T14:27:38;1.27;;;0.38;;
38972;SDS011;25333;50.762;4.470;2023-08-08T14:30:04;3.60;;;0.60;;
38972;SDS011;25333;50.762;4.470;2023-08-08T14:32:30;3.45;;;0.65;;
38972;SDS011;25333;50.762;4.470;2023-08-08T14:34:56;1.95;;;0.30;;
38972;SDS011;25333;50.762;4.470;2023-08-08T14:37:21;0.83;;;0.37;;
38972;SDS011;25333;50.762;4.470;2023-08-08T14:39:47;1.70;;;0.53;;
38972;SDS011;25333;50.762;4.470;2023-08-08T14:42:13;1.20;;;0.43;;
38972;SDS011;25333;50.762;4.470;2023-08-08T14:44:38;3.05;;;0.50;;
38972;SDS011;25333;50.762;4.470;2023-08-08T14:47:04;2.15;;;0.30;;